Wind From: 10-12-2017 19:04 Until: 11-12-2017 16:00 warning for: Wind Level: Orange info button

Power and phone distribution networks may be disrupted for relatively long periods., Roofs and chimneys can be damaged. , Tree branches may break. , Vehicles can be deported. , Traffic may be disrupted, particularly on secondary roads in forest areas. Limit your trips. , Limit your speed in highway driving, especially if you drive a vehicle or hitch sensitive to wind. , Do not go for walks in forests or along the coast., In town, be vigilant against possible falling objects., Do not work on roofs and do not touch any electrical line fallen on the ground., Store or secure sensitive objects to wind or likely to be damaged., Always install power generators outside buildings. 


Meteo18 Weather Cam more information Meteo18 Weather Cam


Thunder radar more information blitzortung!


Rain radar more information rain snow radar


Visit our other weather sites:

Template documentation
and downloads

And another site



Weather Underground History page Text

Daily Summary for March 19, 2017 Units:  Both    English   Metric
« Previous Day
Next Day »
Daily Weekly Monthly Yearly Custom
  High: Low: Average:
Temperature: 54.1 °F /  12.3 °C 48.7 °F /  9.3 °C 50.9 °F /  10.5 °C
Dew Point: 49.3 °F /  9.6 °C 46.4 °F /  8.0 °C 47.8 °F /  8.8 °C
Humidity: 92 % 81 % 89 %
Wind Speed: 18 mph /  29.0 km/h - 6.3 mph /  10.1 km/h
Wind Gust: 23 mph /  37.0 km/h - -
Wind:- - WSW
Pressure: 30.2 in /  1021.2 hPa 30.1 in /  1017.8 hPa -
Precipitation: 0 in /  0.0 mm    
Historical Graphs
 
 
Tabular Data for March 19, 2017
Time Temperature Dew Point Pressure Wind Wind Speed Wind Gust Humidity Rainfall Rate (Hourly)
00:02 49.8 °F /  9.9 °C 46.9 °F /  8.3 °C 30.2 in /  1021.2 hPa WSW 7 mph /  11.3 km/h 15 mph /  24.1 km/h 90 % 0 in /  0.0 mm
00:07 49.8 °F /  9.9 °C 46.9 °F /  8.3 °C 30.2 in /  1021.2 hPa WSW 6 mph /  9.7 km/h 12 mph /  19.3 km/h 90 % 0 in /  0.0 mm
00:12 49.8 °F /  9.9 °C 46.9 °F /  8.3 °C 30.2 in /  1021.2 hPa West 5 mph /  8.0 km/h 11 mph /  17.7 km/h 90 % 0 in /  0.0 mm
00:17 49.8 °F /  9.9 °C 46.9 °F /  8.3 °C 30.2 in /  1021.2 hPa West 4 mph /  6.4 km/h 11 mph /  17.7 km/h 90 % 0 in /  0.0 mm
00:22 49.8 °F /  9.9 °C 47.3 °F /  8.5 °C 30.2 in /  1021.2 hPa SW 7 mph /  11.3 km/h 13 mph /  20.9 km/h 91 % 0 in /  0.0 mm
00:27 49.8 °F /  9.9 °C 47.3 °F /  8.5 °C 30.2 in /  1020.9 hPa SW 5 mph /  8.0 km/h 13 mph /  20.9 km/h 91 % 0 in /  0.0 mm
00:32 49.8 °F /  9.9 °C 47.3 °F /  8.5 °C 30.2 in /  1021.2 hPa SW 5 mph /  8.0 km/h 13 mph /  20.9 km/h 91 % 0 in /  0.0 mm
00:37 49.8 °F /  9.9 °C 47.3 °F /  8.5 °C 30.2 in /  1021.2 hPa SSW 4 mph /  6.4 km/h 13 mph /  20.9 km/h 91 % 0 in /  0.0 mm
00:42 49.8 °F /  9.9 °C 47.3 °F /  8.5 °C 30.2 in /  1021.2 hPa WSW 8 mph /  12.9 km/h 12 mph /  19.3 km/h 91 % 0 in /  0.0 mm
00:47 49.6 °F /  9.8 °C 47.1 °F /  8.4 °C 30.2 in /  1021.2 hPa WSW 6 mph /  9.7 km/h 11 mph /  17.7 km/h 91 % 0 in /  0.0 mm
00:52 49.6 °F /  9.8 °C 47.1 °F /  8.4 °C 30.2 in /  1021.2 hPa WSW 7 mph /  11.3 km/h 11 mph /  17.7 km/h 91 % 0 in /  0.0 mm
01:02 49.6 °F /  9.8 °C 47.1 °F /  8.4 °C 30.2 in /  1020.9 hPa WSW 9 mph /  14.5 km/h 13 mph /  20.9 km/h 91 % 0 in /  0.0 mm
01:07 49.6 °F /  9.8 °C 47.1 °F /  8.4 °C 30.2 in /  1020.9 hPa WSW 5 mph /  8.0 km/h 15 mph /  24.1 km/h 91 % 0 in /  0.0 mm
01:12 49.6 °F /  9.8 °C 47.1 °F /  8.4 °C 30.2 in /  1020.9 hPa SW 6 mph /  9.7 km/h 15 mph /  24.1 km/h 91 % 0 in /  0.0 mm
01:17 49.6 °F /  9.8 °C 47.1 °F /  8.4 °C 30.2 in /  1020.9 hPa SW 9 mph /  14.5 km/h 15 mph /  24.1 km/h 91 % 0 in /  0.0 mm
01:22 49.6 °F /  9.8 °C 47.1 °F /  8.4 °C 30.2 in /  1020.9 hPa WSW 6 mph /  9.7 km/h 15 mph /  24.1 km/h 91 % 0 in /  0.0 mm
01:32 49.6 °F /  9.8 °C 47.1 °F /  8.4 °C 30.2 in /  1020.9 hPa SW 9 mph /  14.5 km/h 17 mph /  27.4 km/h 91 % 0 in /  0.0 mm
01:37 49.6 °F /  9.8 °C 47.1 °F /  8.4 °C 30.2 in /  1020.9 hPa WSW 9 mph /  14.5 km/h 17 mph /  27.4 km/h 91 % 0 in /  0.0 mm
01:42 49.6 °F /  9.8 °C 47.1 °F /  8.4 °C 30.2 in /  1020.9 hPa WSW 11 mph /  17.7 km/h 17 mph /  27.4 km/h 91 % 0 in /  0.0 mm
01:47 49.6 °F /  9.8 °C 47.1 °F /  8.4 °C 30.2 in /  1020.9 hPa SW 11 mph /  17.7 km/h 16 mph /  25.7 km/h 91 % 0 in /  0.0 mm
01:52 49.5 °F /  9.7 °C 46.9 °F /  8.3 °C 30.2 in /  1020.9 hPa SW 8 mph /  12.9 km/h 16 mph /  25.7 km/h 91 % 0 in /  0.0 mm
01:57 49.5 °F /  9.7 °C 46.9 °F /  8.3 °C 30.2 in /  1020.9 hPa WSW 9 mph /  14.5 km/h 14 mph /  22.5 km/h 91 % 0 in /  0.0 mm
02:02 49.5 °F /  9.7 °C 46.9 °F /  8.3 °C 30.2 in /  1020.9 hPa West 9 mph /  14.5 km/h 14 mph /  22.5 km/h 91 % 0 in /  0.0 mm
02:07 49.5 °F /  9.7 °C 46.9 °F /  8.3 °C 30.2 in /  1020.9 hPa West 7 mph /  11.3 km/h 14 mph /  22.5 km/h 91 % 0 in /  0.0 mm
02:12 49.5 °F /  9.7 °C 46.9 °F /  8.3 °C 30.1 in /  1020.5 hPa West 7 mph /  11.3 km/h 15 mph /  24.1 km/h 91 % 0 in /  0.0 mm
02:17 49.5 °F /  9.7 °C 46.9 °F /  8.3 °C 30.1 in /  1020.5 hPa SW 6 mph /  9.7 km/h 16 mph /  25.7 km/h 91 % 0 in /  0.0 mm
02:22 49.5 °F /  9.7 °C 46.9 °F /  8.3 °C 30.1 in /  1020.5 hPa West 8 mph /  12.9 km/h 16 mph /  25.7 km/h 91 % 0 in /  0.0 mm
02:32 49.5 °F /  9.7 °C 46.9 °F /  8.3 °C 30.1 in /  1020.5 hPa WSW 10 mph /  16.1 km/h 15 mph /  24.1 km/h 91 % 0 in /  0.0 mm
02:37 49.3 °F /  9.6 °C 46.8 °F /  8.2 °C 30.1 in /  1020.5 hPa West 11 mph /  17.7 km/h 12 mph /  19.3 km/h 91 % 0 in /  0.0 mm
02:42 49.3 °F /  9.6 °C 46.8 °F /  8.2 °C 30.1 in /  1020.5 hPa WSW 8 mph /  12.9 km/h 12 mph /  19.3 km/h 91 % 0 in /  0.0 mm
02:47 49.3 °F /  9.6 °C 46.8 °F /  8.2 °C 30.1 in /  1020.2 hPa SW 7 mph /  11.3 km/h 11 mph /  17.7 km/h 91 % 0 in /  0.0 mm
02:52 49.3 °F /  9.6 °C 46.8 °F /  8.2 °C 30.1 in /  1020.2 hPa West 3 mph /  4.8 km/h 11 mph /  17.7 km/h 91 % 0 in /  0.0 mm
02:57 49.3 °F /  9.6 °C 46.8 °F /  8.2 °C 30.1 in /  1020.2 hPa WSW 4 mph /  6.4 km/h 11 mph /  17.7 km/h 91 % 0 in /  0.0 mm
03:02 49.3 °F /  9.6 °C 46.8 °F /  8.2 °C 30.1 in /  1020.2 hPa SW 5 mph /  8.0 km/h 11 mph /  17.7 km/h 91 % 0 in /  0.0 mm
03:12 49.3 °F /  9.6 °C 46.8 °F /  8.2 °C 30.1 in /  1020.2 hPa SSE 5 mph /  8.0 km/h 12 mph /  19.3 km/h 91 % 0 in /  0.0 mm
03:17 49.3 °F /  9.6 °C 46.8 °F /  8.2 °C 30.1 in /  1020.2 hPa WSW 8 mph /  12.9 km/h 13 mph /  20.9 km/h 91 % 0 in /  0.0 mm
03:22 49.3 °F /  9.6 °C 46.8 °F /  8.2 °C 30.1 in /  1020.2 hPa WSW 9 mph /  14.5 km/h 13 mph /  20.9 km/h 91 % 0 in /  0.0 mm
03:27 49.3 °F /  9.6 °C 46.8 °F /  8.2 °C 30.1 in /  1020.2 hPa West 11 mph /  17.7 km/h 13 mph /  20.9 km/h 91 % 0 in /  0.0 mm
03:32 49.1 °F /  9.5 °C 46.6 °F /  8.1 °C 30.1 in /  1020.2 hPa WSW 14 mph /  22.5 km/h 14 mph /  22.5 km/h 91 % 0 in /  0.0 mm
03:37 49.1 °F /  9.5 °C 46.6 °F /  8.1 °C 30.1 in /  1020.2 hPa SW 7 mph /  11.3 km/h 17 mph /  27.4 km/h 91 % 0 in /  0.0 mm
03:42 48.9 °F /  9.4 °C 46.4 °F /  8.0 °C 30.1 in /  1020.2 hPa West 8 mph /  12.9 km/h 17 mph /  27.4 km/h 91 % 0 in /  0.0 mm
03:47 48.9 °F /  9.4 °C 46.8 °F /  8.2 °C 30.1 in /  1020.2 hPa SW 6 mph /  9.7 km/h 16 mph /  25.7 km/h 92 % 0 in /  0.0 mm
03:52 48.9 °F /  9.4 °C 46.8 °F /  8.2 °C 30.1 in /  1019.9 hPa West 7 mph /  11.3 km/h 16 mph /  25.7 km/h 92 % 0 in /  0.0 mm
03:57 48.7 °F /  9.3 °C 46.6 °F /  8.1 °C 30.1 in /  1019.9 hPa WSW 7 mph /  11.3 km/h 14 mph /  22.5 km/h 92 % 0 in /  0.0 mm
04:02 48.7 °F /  9.3 °C 46.6 °F /  8.1 °C 30.1 in /  1019.9 hPa SW 4 mph /  6.4 km/h 14 mph /  22.5 km/h 92 % 0 in /  0.0 mm
04:07 48.7 °F /  9.3 °C 46.6 °F /  8.1 °C 30.1 in /  1019.9 hPa SW 6 mph /  9.7 km/h 15 mph /  24.1 km/h 92 % 0 in /  0.0 mm
04:12 48.7 °F /  9.3 °C 46.6 °F /  8.1 °C 30.1 in /  1019.9 hPa WSW 5 mph /  8.0 km/h 15 mph /  24.1 km/h 92 % 0 in /  0.0 mm
04:17 48.7 °F /  9.3 °C 46.6 °F /  8.1 °C 30.1 in /  1019.9 hPa West 6 mph /  9.7 km/h 14 mph /  22.5 km/h 92 % 0 in /  0.0 mm
04:22 48.7 °F /  9.3 °C 46.6 °F /  8.1 °C 30.1 in /  1019.9 hPa West 3 mph /  4.8 km/h 14 mph /  22.5 km/h 92 % 0 in /  0.0 mm
04:27 48.7 °F /  9.3 °C 46.6 °F /  8.1 °C 30.1 in /  1019.9 hPa SW 4 mph /  6.4 km/h 11 mph /  17.7 km/h 92 % 0 in /  0.0 mm
04:32 48.7 °F /  9.3 °C 46.6 °F /  8.1 °C 30.1 in /  1019.9 hPa West 5 mph /  8.0 km/h 11 mph /  17.7 km/h 92 % 0 in /  0.0 mm
04:37 48.7 °F /  9.3 °C 46.6 °F /  8.1 °C 30.1 in /  1019.9 hPa SW 3 mph /  4.8 km/h 13 mph /  20.9 km/h 92 % 0 in /  0.0 mm
04:42 48.7 °F /  9.3 °C 46.6 °F /  8.1 °C 30.1 in /  1019.9 hPa WSW 4 mph /  6.4 km/h 13 mph /  20.9 km/h 92 % 0 in /  0.0 mm
04:47 48.7 °F /  9.3 °C 46.6 °F /  8.1 °C 30.1 in /  1019.9 hPa SSW 4 mph /  6.4 km/h 11 mph /  17.7 km/h 92 % 0 in /  0.0 mm
04:52 48.7 °F /  9.3 °C 46.6 °F /  8.1 °C 30.1 in /  1019.5 hPa WSW 7 mph /  11.3 km/h 11 mph /  17.7 km/h 92 % 0 in /  0.0 mm
04:57 48.7 °F /  9.3 °C 46.6 °F /  8.1 °C 30.1 in /  1019.5 hPa WSW 7 mph /  11.3 km/h 11 mph /  17.7 km/h 92 % 0 in /  0.0 mm
05:02 48.7 °F /  9.3 °C 46.6 °F /  8.1 °C 30.1 in /  1019.9 hPa SW 8 mph /  12.9 km/h 11 mph /  17.7 km/h 92 % 0 in /  0.0 mm
05:12 48.7 °F /  9.3 °C 46.6 °F /  8.1 °C 30.1 in /  1019.9 hPa SW 8 mph /  12.9 km/h 13 mph /  20.9 km/h 92 % 0 in /  0.0 mm
05:17 48.7 °F /  9.3 °C 46.6 °F /  8.1 °C 30.1 in /  1019.5 hPa WSW 10 mph /  16.1 km/h 14 mph /  22.5 km/h 92 % 0 in /  0.0 mm
05:22 48.7 °F /  9.3 °C 46.6 °F /  8.1 °C 30.1 in /  1019.5 hPa West 8 mph /  12.9 km/h 14 mph /  22.5 km/h 92 % 0 in /  0.0 mm
05:27 48.7 °F /  9.3 °C 46.6 °F /  8.1 °C 30.1 in /  1019.5 hPa WSW 8 mph /  12.9 km/h 13 mph /  20.9 km/h 92 % 0 in /  0.0 mm
05:32 48.7 °F /  9.3 °C 46.6 °F /  8.1 °C 30.1 in /  1019.5 hPa SW 6 mph /  9.7 km/h 13 mph /  20.9 km/h 92 % 0 in /  0.0 mm
05:42 48.7 °F /  9.3 °C 46.6 °F /  8.1 °C 30.1 in /  1019.5 hPa WSW 1 mph /  1.6 km/h 12 mph /  19.3 km/h 92 % 0 in /  0.0 mm
05:47 48.7 °F /  9.3 °C 46.6 °F /  8.1 °C 30.1 in /  1019.5 hPa SW 2 mph /  3.2 km/h 10 mph /  16.1 km/h 92 % 0 in /  0.0 mm
05:52 48.7 °F /  9.3 °C 46.6 °F /  8.1 °C 30.1 in /  1019.5 hPa WSW 3 mph /  4.8 km/h 10 mph /  16.1 km/h 92 % 0 in /  0.0 mm
06:02 48.9 °F /  9.4 °C 46.8 °F /  8.2 °C 30.1 in /  1019.2 hPa WSW 9 mph /  14.5 km/h 10 mph /  16.1 km/h 92 % 0 in /  0.0 mm
06:07 48.9 °F /  9.4 °C 46.8 °F /  8.2 °C 30.1 in /  1019.2 hPa SSW 4 mph /  6.4 km/h 13 mph /  20.9 km/h 92 % 0 in /  0.0 mm
06:12 48.9 °F /  9.4 °C 46.8 °F /  8.2 °C 30.1 in /  1019.2 hPa SW 10 mph /  16.1 km/h 13 mph /  20.9 km/h 92 % 0 in /  0.0 mm
06:17 48.9 °F /  9.4 °C 46.8 °F /  8.2 °C 30.1 in /  1019.2 hPa West 7 mph /  11.3 km/h 15 mph /  24.1 km/h 92 % 0 in /  0.0 mm
06:22 48.9 °F /  9.4 °C 46.8 °F /  8.2 °C 30.1 in /  1019.5 hPa SSW 3 mph /  4.8 km/h 15 mph /  24.1 km/h 92 % 0 in /  0.0 mm
06:27 48.9 °F /  9.4 °C 46.8 °F /  8.2 °C 30.1 in /  1019.5 hPa SW 6 mph /  9.7 km/h 15 mph /  24.1 km/h 92 % 0 in /  0.0 mm
06:32 48.9 °F /  9.4 °C 46.8 °F /  8.2 °C 30.1 in /  1019.5 hPa WSW 11 mph /  17.7 km/h 15 mph /  24.1 km/h 92 % 0 in /  0.0 mm
06:37 48.9 °F /  9.4 °C 46.8 °F /  8.2 °C 30.1 in /  1019.5 hPa WSW 8 mph /  12.9 km/h 11 mph /  17.7 km/h 92 % 0 in /  0.0 mm
06:42 48.9 °F /  9.4 °C 46.8 °F /  8.2 °C 30.1 in /  1019.5 hPa SW 3 mph /  4.8 km/h 11 mph /  17.7 km/h 92 % 0 in /  0.0 mm
06:47 48.9 °F /  9.4 °C 46.8 °F /  8.2 °C 30.1 in /  1019.5 hPa South 5 mph /  8.0 km/h 11 mph /  17.7 km/h 92 % 0 in /  0.0 mm
06:52 48.9 °F /  9.4 °C 46.8 °F /  8.2 °C 30.1 in /  1019.5 hPa South 5 mph /  8.0 km/h 11 mph /  17.7 km/h 92 % 0 in /  0.0 mm
06:57 48.9 °F /  9.4 °C 46.8 °F /  8.2 °C 30.1 in /  1019.5 hPa SW 5 mph /  8.0 km/h 14 mph /  22.5 km/h 92 % 0 in /  0.0 mm
07:02 48.9 °F /  9.4 °C 46.8 °F /  8.2 °C 30.1 in /  1019.5 hPa SSW 3 mph /  4.8 km/h 14 mph /  22.5 km/h 92 % 0 in /  0.0 mm
07:07 48.9 °F /  9.4 °C 46.8 °F /  8.2 °C 30.1 in /  1019.5 hPa SW 7 mph /  11.3 km/h 12 mph /  19.3 km/h 92 % 0 in /  0.0 mm
07:12 49.1 °F /  9.5 °C 46.9 °F /  8.3 °C 30.1 in /  1019.5 hPa SW 10 mph /  16.1 km/h 12 mph /  19.3 km/h 92 % 0 in /  0.0 mm
07:17 49.1 °F /  9.5 °C 46.9 °F /  8.3 °C 30.1 in /  1019.9 hPa WSW 7 mph /  11.3 km/h 15 mph /  24.1 km/h 92 % 0 in /  0.0 mm
07:22 49.1 °F /  9.5 °C 46.9 °F /  8.3 °C 30.1 in /  1019.9 hPa SW 6 mph /  9.7 km/h 15 mph /  24.1 km/h 92 % 0 in /  0.0 mm
07:32 49.1 °F /  9.5 °C 46.9 °F /  8.3 °C 30.1 in /  1019.9 hPa SSW 4 mph /  6.4 km/h 11 mph /  17.7 km/h 92 % 0 in /  0.0 mm
07:42 49.1 °F /  9.5 °C 46.9 °F /  8.3 °C 30.1 in /  1019.9 hPa Calm   9 mph /  14.5 km/h 92 % 0 in /  0.0 mm
07:52 49.3 °F /  9.6 °C 47.1 °F /  8.4 °C 30.1 in /  1019.9 hPa WSW 6 mph /  9.7 km/h 9 mph /  14.5 km/h 92 % 0 in /  0.0 mm
08:02 49.3 °F /  9.6 °C 47.1 °F /  8.4 °C 30.1 in /  1019.9 hPa WSW 3 mph /  4.8 km/h 10 mph /  16.1 km/h 92 % 0 in /  0.0 mm
08:12 49.3 °F /  9.6 °C 47.1 °F /  8.4 °C 30.1 in /  1019.9 hPa SW 1 mph /  1.6 km/h 10 mph /  16.1 km/h 92 % 0 in /  0.0 mm
08:17 49.3 °F /  9.6 °C 47.1 °F /  8.4 °C 30.1 in /  1019.9 hPa SSW 4 mph /  6.4 km/h 8 mph /  12.9 km/h 92 % 0 in /  0.0 mm
08:22 49.5 °F /  9.7 °C 47.3 °F /  8.5 °C 30.1 in /  1019.9 hPa Calm   8 mph /  12.9 km/h 92 % 0 in /  0.0 mm
08:32 49.5 °F /  9.7 °C 47.3 °F /  8.5 °C 30.1 in /  1019.9 hPa SW 2 mph /  3.2 km/h 9 mph /  14.5 km/h 92 % 0 in /  0.0 mm
08:42 49.6 °F /  9.8 °C 47.5 °F /  8.6 °C 30.1 in /  1019.9 hPa SW 4 mph /  6.4 km/h 9 mph /  14.5 km/h 92 % 0 in /  0.0 mm
08:47 49.6 °F /  9.8 °C 47.5 °F /  8.6 °C 30.1 in /  1019.9 hPa WSW 10 mph /  16.1 km/h 10 mph /  16.1 km/h 92 % 0 in /  0.0 mm
08:52 49.6 °F /  9.8 °C 47.5 °F /  8.6 °C 30.1 in /  1019.9 hPa WSW 7 mph /  11.3 km/h 9 mph /  14.5 km/h 92 % 0 in /  0.0 mm
08:57 49.6 °F /  9.8 °C 47.5 °F /  8.6 °C 30.1 in /  1019.9 hPa WSW 9 mph /  14.5 km/h 13 mph /  20.9 km/h 92 % 0 in /  0.0 mm
09:02 49.6 °F /  9.8 °C 47.5 °F /  8.6 °C 30.1 in /  1019.9 hPa West 8 mph /  12.9 km/h 13 mph /  20.9 km/h 92 % 0 in /  0.0 mm
09:12 49.8 °F /  9.9 °C 47.7 °F /  8.7 °C 30.1 in /  1019.9 hPa SW 4 mph /  6.4 km/h 12 mph /  19.3 km/h 92 % 0 in /  0.0 mm
09:17 49.8 °F /  9.9 °C 47.7 °F /  8.7 °C 30.1 in /  1019.9 hPa WSW 10 mph /  16.1 km/h 12 mph /  19.3 km/h 92 % 0 in /  0.0 mm
09:22 49.8 °F /  9.9 °C 47.7 °F /  8.7 °C 30.1 in /  1019.9 hPa WSW 5 mph /  8.0 km/h 12 mph /  19.3 km/h 92 % 0 in /  0.0 mm
09:32 50 °F /  10.0 °C 47.8 °F /  8.8 °C 30.1 in /  1019.9 hPa SW 2 mph /  3.2 km/h 13 mph /  20.9 km/h 92 % 0 in /  0.0 mm
09:42 50.4 °F /  10.2 °C 48.2 °F /  9.0 °C 30.1 in /  1019.5 hPa SW 5 mph /  8.0 km/h 12 mph /  19.3 km/h 92 % 0 in /  0.0 mm
09:52 50.5 °F /  10.3 °C 48.4 °F /  9.1 °C 30.1 in /  1019.5 hPa WSW 7 mph /  11.3 km/h 13 mph /  20.9 km/h 92 % 0 in /  0.0 mm
10:02 50.5 °F /  10.3 °C 48 °F /  8.9 °C 30.1 in /  1019.5 hPa West 8 mph /  12.9 km/h 15 mph /  24.1 km/h 91 % 0 in /  0.0 mm
10:12 50.5 °F /  10.3 °C 48 °F /  8.9 °C 30.1 in /  1019.5 hPa West 8 mph /  12.9 km/h 16 mph /  25.7 km/h 91 % 0 in /  0.0 mm
10:22 50.7 °F /  10.4 °C 48.2 °F /  9.0 °C 30.1 in /  1019.9 hPa West 8 mph /  12.9 km/h 12 mph /  19.3 km/h 91 % 0 in /  0.0 mm
10:32 50.9 °F /  10.5 °C 48 °F /  8.9 °C 30.1 in /  1019.9 hPa West 9 mph /  14.5 km/h 15 mph /  24.1 km/h 90 % 0 in /  0.0 mm
10:42 51.3 °F /  10.7 °C 48.4 °F /  9.1 °C 30.1 in /  1019.5 hPa West 10 mph /  16.1 km/h 15 mph /  24.1 km/h 90 % 0 in /  0.0 mm
10:47 51.3 °F /  10.7 °C 48.2 °F /  9.0 °C 30.1 in /  1019.5 hPa West 11 mph /  17.7 km/h 17 mph /  27.4 km/h 89 % 0 in /  0.0 mm
10:52 51.3 °F /  10.7 °C 48.2 °F /  9.0 °C 30.1 in /  1019.5 hPa SW 13 mph /  20.9 km/h 17 mph /  27.4 km/h 89 % 0 in /  0.0 mm
10:57 51.4 °F /  10.8 °C 48.4 °F /  9.1 °C 30.1 in /  1019.5 hPa West 10 mph /  16.1 km/h 19 mph /  30.6 km/h 89 % 0 in /  0.0 mm
11:02 51.4 °F /  10.8 °C 48.4 °F /  9.1 °C 30.1 in /  1019.5 hPa WSW 6 mph /  9.7 km/h 19 mph /  30.6 km/h 89 % 0 in /  0.0 mm
11:12 51.6 °F /  10.9 °C 48.6 °F /  9.2 °C 30.1 in /  1019.2 hPa SW 6 mph /  9.7 km/h 18 mph /  29.0 km/h 89 % 0 in /  0.0 mm
11:17 51.6 °F /  10.9 °C 48.2 °F /  9.0 °C 30.1 in /  1019.2 hPa WSW 7 mph /  11.3 km/h 17 mph /  27.4 km/h 88 % 0 in /  0.0 mm
11:22 52.5 °F /  11.4 °C 49.1 °F /  9.5 °C 30.1 in /  1019.2 hPa West 18 mph /  29.0 km/h 18 mph /  29.0 km/h 88 % 0 in /  0.0 mm
11:32 53.2 °F /  11.8 °C 48.9 °F /  9.4 °C 30.1 in /  1019.2 hPa WSW 13 mph /  20.9 km/h 18 mph /  29.0 km/h 85 % 0 in /  0.0 mm
11:37 52.9 °F /  11.6 °C 48.6 °F /  9.2 °C 30.1 in /  1019.2 hPa West 13 mph /  20.9 km/h 21 mph /  33.8 km/h 85 % 0 in /  0.0 mm
11:42 52.9 °F /  11.6 °C 48.7 °F /  9.3 °C 30.1 in /  1019.2 hPa West 9 mph /  14.5 km/h 21 mph /  33.8 km/h 86 % 0 in /  0.0 mm
11:47 53.2 °F /  11.8 °C 48.9 °F /  9.4 °C 30.1 in /  1019.2 hPa WSW 12 mph /  19.3 km/h 23 mph /  37.0 km/h 85 % 0 in /  0.0 mm
11:52 53.4 °F /  11.9 °C 49.1 °F /  9.5 °C 30.1 in /  1018.8 hPa SSW 11 mph /  17.7 km/h 23 mph /  37.0 km/h 85 % 0 in /  0.0 mm
11:57 53.2 °F /  11.8 °C 48.6 °F /  9.2 °C 30.1 in /  1018.8 hPa WSW 15 mph /  24.1 km/h 20 mph /  32.2 km/h 84 % 0 in /  0.0 mm
12:02 53.1 °F /  11.7 °C 48.4 °F /  9.1 °C 30.1 in /  1018.8 hPa WSW 7 mph /  11.3 km/h 20 mph /  32.2 km/h 84 % 0 in /  0.0 mm
12:07 53.2 °F /  11.8 °C 48.6 °F /  9.2 °C 30.1 in /  1018.8 hPa SW 12 mph /  19.3 km/h 21 mph /  33.8 km/h 84 % 0 in /  0.0 mm
12:12 53.6 °F /  12.0 °C 48.6 °F /  9.2 °C 30.1 in /  1018.8 hPa WSW 12 mph /  19.3 km/h 21 mph /  33.8 km/h 83 % 0 in /  0.0 mm
12:17 53.8 °F /  12.1 °C 48.4 °F /  9.1 °C 30.1 in /  1018.8 hPa SW 8 mph /  12.9 km/h 21 mph /  33.8 km/h 82 % 0 in /  0.0 mm
12:22 54 °F /  12.2 °C 49.3 °F /  9.6 °C 30.1 in /  1018.8 hPa SW 9 mph /  14.5 km/h 21 mph /  33.8 km/h 84 % 0 in /  0.0 mm
12:27 54 °F /  12.2 °C 48.2 °F /  9.0 °C 30.1 in /  1018.8 hPa WSW 12 mph /  19.3 km/h 21 mph /  33.8 km/h 81 % 0 in /  0.0 mm
12:32 53.4 °F /  11.9 °C 48 °F /  8.9 °C 30.1 in /  1018.8 hPa SW 11 mph /  17.7 km/h 21 mph /  33.8 km/h 82 % 0 in /  0.0 mm
12:37 53.8 °F /  12.1 °C 48.4 °F /  9.1 °C 30.1 in /  1018.8 hPa SW 9 mph /  14.5 km/h 21 mph /  33.8 km/h 82 % 0 in /  0.0 mm
12:42 54 °F /  12.2 °C 48.6 °F /  9.2 °C 30.1 in /  1018.8 hPa WSW 7 mph /  11.3 km/h 22 mph /  35.4 km/h 82 % 0 in /  0.0 mm
12:47 54 °F /  12.2 °C 48.2 °F /  9.0 °C 30.1 in /  1019.2 hPa WSW 11 mph /  17.7 km/h 21 mph /  33.8 km/h 81 % 0 in /  0.0 mm
12:52 54.1 °F /  12.3 °C 48.4 °F /  9.1 °C 30.1 in /  1018.8 hPa WNW 11 mph /  17.7 km/h 21 mph /  33.8 km/h 81 % 0 in /  0.0 mm
12:57 54.1 °F /  12.3 °C 48.4 °F /  9.1 °C 30.1 in /  1019.2 hPa West 7 mph /  11.3 km/h 20 mph /  32.2 km/h 81 % 0 in /  0.0 mm
13:02 54.1 °F /  12.3 °C 48.4 °F /  9.1 °C 30.1 in /  1019.2 hPa SSW 10 mph /  16.1 km/h 20 mph /  32.2 km/h 81 % 0 in /  0.0 mm
13:07 54 °F /  12.2 °C 48.6 °F /  9.2 °C 30.1 in /  1019.2 hPa WSW 8 mph /  12.9 km/h 19 mph /  30.6 km/h 82 % 0 in /  0.0 mm
13:12 53.8 °F /  12.1 °C 48 °F /  8.9 °C 30.1 in /  1018.8 hPa West 7 mph /  11.3 km/h 19 mph /  30.6 km/h 81 % 0 in /  0.0 mm
13:17 53.8 °F /  12.1 °C 48.4 °F /  9.1 °C 30.1 in /  1018.8 hPa SW 14 mph /  22.5 km/h 21 mph /  33.8 km/h 82 % 0 in /  0.0 mm
13:22 53.8 °F /  12.1 °C 48.4 °F /  9.1 °C 30.1 in /  1018.8 hPa WSW 7 mph /  11.3 km/h 21 mph /  33.8 km/h 82 % 0 in /  0.0 mm
13:27 53.8 °F /  12.1 °C 48.4 °F /  9.1 °C 30.1 in /  1018.8 hPa WNW 8 mph /  12.9 km/h 17 mph /  27.4 km/h 82 % 0 in /  0.0 mm
13:32 53.4 °F /  11.9 °C 48.4 °F /  9.1 °C 30.1 in /  1018.8 hPa SW 7 mph /  11.3 km/h 17 mph /  27.4 km/h 83 % 0 in /  0.0 mm
13:42 53.2 °F /  11.8 °C 48.2 °F /  9.0 °C 30.1 in /  1018.8 hPa WSW 7 mph /  11.3 km/h 16 mph /  25.7 km/h 83 % 0 in /  0.0 mm
13:47 53.2 °F /  11.8 °C 48.6 °F /  9.2 °C 30.1 in /  1018.8 hPa WSW 4 mph /  6.4 km/h 15 mph /  24.1 km/h 84 % 0 in /  0.0 mm
13:57 53.4 °F /  11.9 °C 48.4 °F /  9.1 °C 30.1 in /  1018.8 hPa WSW 13 mph /  20.9 km/h 13 mph /  20.9 km/h 83 % 0 in /  0.0 mm
14:02 53.4 °F /  11.9 °C 48.4 °F /  9.1 °C 30.1 in /  1018.8 hPa West 5 mph /  8.0 km/h 13 mph /  20.9 km/h 83 % 0 in /  0.0 mm
14:07 53.2 °F /  11.8 °C 48.6 °F /  9.2 °C 30.1 in /  1018.8 hPa WSW 7 mph /  11.3 km/h 16 mph /  25.7 km/h 84 % 0 in /  0.0 mm
14:12 53.2 °F /  11.8 °C 48.6 °F /  9.2 °C 30.1 in /  1018.8 hPa WSW 4 mph /  6.4 km/h 16 mph /  25.7 km/h 84 % 0 in /  0.0 mm
14:22 53.2 °F /  11.8 °C 48.9 °F /  9.4 °C 30.1 in /  1018.8 hPa WSW 7 mph /  11.3 km/h 14 mph /  22.5 km/h 85 % 0 in /  0.0 mm
14:32 53.2 °F /  11.8 °C 48.9 °F /  9.4 °C 30.1 in /  1018.8 hPa WSW 9 mph /  14.5 km/h 14 mph /  22.5 km/h 85 % 0 in /  0.0 mm
14:42 53.2 °F /  11.8 °C 48.9 °F /  9.4 °C 30.1 in /  1018.5 hPa SW 4 mph /  6.4 km/h 15 mph /  24.1 km/h 85 % 0 in /  0.0 mm
14:47 53.1 °F /  11.7 °C 48.9 °F /  9.4 °C 30.1 in /  1018.5 hPa WNW 7 mph /  11.3 km/h 13 mph /  20.9 km/h 86 % 0 in /  0.0 mm
14:52 52.9 °F /  11.6 °C 48.7 °F /  9.3 °C 30.1 in /  1018.5 hPa WSW 10 mph /  16.1 km/h 13 mph /  20.9 km/h 86 % 0 in /  0.0 mm
14:57 52.7 °F /  11.5 °C 48.6 °F /  9.2 °C 30.1 in /  1018.5 hPa SW 9 mph /  14.5 km/h 14 mph /  22.5 km/h 86 % 0 in /  0.0 mm
15:02 52.9 °F /  11.6 °C 48.7 °F /  9.3 °C 30.1 in /  1018.5 hPa SSW 5 mph /  8.0 km/h 14 mph /  22.5 km/h 86 % 0 in /  0.0 mm
15:12 53.1 °F /  11.7 °C 48.7 °F /  9.3 °C 30.1 in /  1018.5 hPa WSW 5 mph /  8.0 km/h 15 mph /  24.1 km/h 85 % 0 in /  0.0 mm
15:17 53.1 °F /  11.7 °C 48.7 °F /  9.3 °C 30.1 in /  1018.5 hPa WSW 10 mph /  16.1 km/h 15 mph /  24.1 km/h 85 % 0 in /  0.0 mm
15:22 53.2 °F /  11.8 °C 48.6 °F /  9.2 °C 30.1 in /  1018.5 hPa West 7 mph /  11.3 km/h 15 mph /  24.1 km/h 84 % 0 in /  0.0 mm
15:27 53.2 °F /  11.8 °C 48.6 °F /  9.2 °C 30.1 in /  1018.5 hPa West 7 mph /  11.3 km/h 15 mph /  24.1 km/h 84 % 0 in /  0.0 mm
15:32 53.2 °F /  11.8 °C 48.6 °F /  9.2 °C 30.1 in /  1018.5 hPa West 6 mph /  9.7 km/h 15 mph /  24.1 km/h 84 % 0 in /  0.0 mm
15:37 53.1 °F /  11.7 °C 48.4 °F /  9.1 °C 30.1 in /  1018.5 hPa WSW 6 mph /  9.7 km/h 15 mph /  24.1 km/h 84 % 0 in /  0.0 mm
15:42 52.9 °F /  11.6 °C 48.7 °F /  9.3 °C 30.1 in /  1018.5 hPa West 10 mph /  16.1 km/h 15 mph /  24.1 km/h 86 % 0 in /  0.0 mm
15:47 52.5 °F /  11.4 °C 48.7 °F /  9.3 °C 30.1 in /  1018.5 hPa WSW 11 mph /  17.7 km/h 15 mph /  24.1 km/h 87 % 0 in /  0.0 mm
15:52 52.3 °F /  11.3 °C 48.9 °F /  9.4 °C 30.1 in /  1018.2 hPa WSW 6 mph /  9.7 km/h 15 mph /  24.1 km/h 88 % 0 in /  0.0 mm
15:57 52.3 °F /  11.3 °C 48.9 °F /  9.4 °C 30.1 in /  1018.5 hPa West 12 mph /  19.3 km/h 15 mph /  24.1 km/h 88 % 0 in /  0.0 mm
16:02 52.5 °F /  11.4 °C 48.7 °F /  9.3 °C 30.1 in /  1018.2 hPa West 9 mph /  14.5 km/h 15 mph /  24.1 km/h 87 % 0 in /  0.0 mm
16:07 52.5 °F /  11.4 °C 48.7 °F /  9.3 °C 30.1 in /  1018.2 hPa WNW 8 mph /  12.9 km/h 15 mph /  24.1 km/h 87 % 0 in /  0.0 mm
16:17 52.9 °F /  11.6 °C 48.7 °F /  9.3 °C 30.1 in /  1018.2 hPa WSW 4 mph /  6.4 km/h 12 mph /  19.3 km/h 86 % 0 in /  0.0 mm
16:22 52.9 °F /  11.6 °C 49.1 °F /  9.5 °C 30.1 in /  1018.2 hPa SW 3 mph /  4.8 km/h 12 mph /  19.3 km/h 87 % 0 in /  0.0 mm
16:32 52.5 °F /  11.4 °C 48.7 °F /  9.3 °C 30.1 in /  1018.2 hPa SW 9 mph /  14.5 km/h 14 mph /  22.5 km/h 87 % 0 in /  0.0 mm
16:37 52.3 °F /  11.3 °C 48.9 °F /  9.4 °C 30.1 in /  1017.8 hPa WNW 8 mph /  12.9 km/h 15 mph /  24.1 km/h 88 % 0 in /  0.0 mm
16:42 52 °F /  11.1 °C 48.6 °F /  9.2 °C 30.1 in /  1017.8 hPa WSW 6 mph /  9.7 km/h 15 mph /  24.1 km/h 88 % 0 in /  0.0 mm
16:47 52 °F /  11.1 °C 48.9 °F /  9.4 °C 30.1 in /  1017.8 hPa WSW 8 mph /  12.9 km/h 15 mph /  24.1 km/h 89 % 0 in /  0.0 mm
16:52 51.8 °F /  11.0 °C 48.7 °F /  9.3 °C 30.1 in /  1017.8 hPa WSW 11 mph /  17.7 km/h 15 mph /  24.1 km/h 89 % 0 in /  0.0 mm
16:57 52 °F /  11.1 °C 48.9 °F /  9.4 °C 30.1 in /  1017.8 hPa WSW 6 mph /  9.7 km/h 14 mph /  22.5 km/h 89 % 0 in /  0.0 mm
17:02 52.2 °F /  11.2 °C 49.1 °F /  9.5 °C 30.1 in /  1017.8 hPa SW 4 mph /  6.4 km/h 14 mph /  22.5 km/h 89 % 0 in /  0.0 mm
17:07 52.3 °F /  11.3 °C 48.9 °F /  9.4 °C 30.1 in /  1017.8 hPa West 6 mph /  9.7 km/h 14 mph /  22.5 km/h 88 % 0 in /  0.0 mm
17:12 52.2 °F /  11.2 °C 48.7 °F /  9.3 °C 30.1 in /  1017.8 hPa West 9 mph /  14.5 km/h 14 mph /  22.5 km/h 88 % 0 in /  0.0 mm
17:17 52 °F /  11.1 °C 48.6 °F /  9.2 °C 30.1 in /  1017.8 hPa SSW 5 mph /  8.0 km/h 15 mph /  24.1 km/h 88 % 0 in /  0.0 mm
17:22 52 °F /  11.1 °C 48.6 °F /  9.2 °C 30.1 in /  1017.8 hPa WSW 7 mph /  11.3 km/h 15 mph /  24.1 km/h 88 % 0 in /  0.0 mm
17:27 52 °F /  11.1 °C 48.6 °F /  9.2 °C 30.1 in /  1017.8 hPa WSW 13 mph /  20.9 km/h 13 mph /  20.9 km/h 88 % 0 in /  0.0 mm
17:32 51.8 °F /  11.0 °C 48.4 °F /  9.1 °C 30.1 in /  1017.8 hPa WSW 6 mph /  9.7 km/h 13 mph /  20.9 km/h 88 % 0 in /  0.0 mm
17:42 52 °F /  11.1 °C 48.6 °F /  9.2 °C 30.1 in /  1017.8 hPa WSW 5 mph /  8.0 km/h 17 mph /  27.4 km/h 88 % 0 in /  0.0 mm
17:52 52 °F /  11.1 °C 48.6 °F /  9.2 °C 30.1 in /  1017.8 hPa WSW 3 mph /  4.8 km/h 13 mph /  20.9 km/h 88 % 0 in /  0.0 mm
17:57 51.8 °F /  11.0 °C 48.7 °F /  9.3 °C 30.1 in /  1017.8 hPa WSW 3 mph /  4.8 km/h 12 mph /  19.3 km/h 89 % 0 in /  0.0 mm
18:02 52 °F /  11.1 °C 48.9 °F /  9.4 °C 30.1 in /  1017.8 hPa West 4 mph /  6.4 km/h 12 mph /  19.3 km/h 89 % 0 in /  0.0 mm
18:07 51.8 °F /  11.0 °C 48.7 °F /  9.3 °C 30.1 in /  1017.8 hPa WSW 3 mph /  4.8 km/h 11 mph /  17.7 km/h 89 % 0 in /  0.0 mm
18:12 52 °F /  11.1 °C 48.9 °F /  9.4 °C 30.1 in /  1017.8 hPa WSW 2 mph /  3.2 km/h 11 mph /  17.7 km/h 89 % 0 in /  0.0 mm
18:17 52 °F /  11.1 °C 48.9 °F /  9.4 °C 30.1 in /  1017.8 hPa WSW 8 mph /  12.9 km/h 8 mph /  12.9 km/h 89 % 0 in /  0.0 mm
18:22 52 °F /  11.1 °C 48.9 °F /  9.4 °C 30.1 in /  1017.8 hPa West 6 mph /  9.7 km/h 9 mph /  14.5 km/h 89 % 0 in /  0.0 mm
18:27 52 °F /  11.1 °C 48.9 °F /  9.4 °C 30.1 in /  1017.8 hPa WSW 2 mph /  3.2 km/h 9 mph /  14.5 km/h 89 % 0 in /  0.0 mm
18:32 52 °F /  11.1 °C 48.9 °F /  9.4 °C 30.1 in /  1017.8 hPa West 5 mph /  8.0 km/h 11 mph /  17.7 km/h 89 % 0 in /  0.0 mm
18:37 52 °F /  11.1 °C 48.9 °F /  9.4 °C 30.1 in /  1017.8 hPa WSW 9 mph /  14.5 km/h 11 mph /  17.7 km/h 89 % 0 in /  0.0 mm
18:42 52 °F /  11.1 °C 48.9 °F /  9.4 °C 30.1 in /  1017.8 hPa West 4 mph /  6.4 km/h 11 mph /  17.7 km/h 89 % 0 in /  0.0 mm
18:47 52 °F /  11.1 °C 48.9 °F /  9.4 °C 30.1 in /  1017.8 hPa WSW 8 mph /  12.9 km/h 11 mph /  17.7 km/h 89 % 0 in /  0.0 mm
18:52 52 °F /  11.1 °C 48.9 °F /  9.4 °C 30.1 in /  1017.8 hPa WSW 4 mph /  6.4 km/h 11 mph /  17.7 km/h 89 % 0 in /  0.0 mm
18:57 52 °F /  11.1 °C 48.9 °F /  9.4 °C 30.1 in /  1017.8 hPa WSW 9 mph /  14.5 km/h 11 mph /  17.7 km/h 89 % 0 in /  0.0 mm
19:02 52 °F /  11.1 °C 48.9 °F /  9.4 °C 30.1 in /  1018.2 hPa WSW 8 mph /  12.9 km/h 11 mph /  17.7 km/h 89 % 0 in /  0.0 mm
19:07 51.8 °F /  11.0 °C 48.7 °F /  9.3 °C 30.1 in /  1018.2 hPa West 6 mph /  9.7 km/h 10 mph /  16.1 km/h 89 % 0 in /  0.0 mm
19:12 51.8 °F /  11.0 °C 48.7 °F /  9.3 °C 30.1 in /  1018.2 hPa WSW 9 mph /  14.5 km/h 10 mph /  16.1 km/h 89 % 0 in /  0.0 mm
19:17 51.6 °F /  10.9 °C 48.7 °F /  9.3 °C 30.1 in /  1018.2 hPa West 9 mph /  14.5 km/h 11 mph /  17.7 km/h 90 % 0 in /  0.0 mm
19:22 51.6 °F /  10.9 °C 48.7 °F /  9.3 °C 30.1 in /  1017.8 hPa West 6 mph /  9.7 km/h 11 mph /  17.7 km/h 90 % 0 in /  0.0 mm
19:32 51.6 °F /  10.9 °C 48.7 °F /  9.3 °C 30.1 in /  1018.2 hPa WSW 7 mph /  11.3 km/h 11 mph /  17.7 km/h 90 % 0 in /  0.0 mm
19:37 51.6 °F /  10.9 °C 48.7 °F /  9.3 °C 30.1 in /  1018.2 hPa WSW 3 mph /  4.8 km/h 10 mph /  16.1 km/h 90 % 0 in /  0.0 mm
19:42 51.6 °F /  10.9 °C 48.7 °F /  9.3 °C 30.1 in /  1018.2 hPa SW 2 mph /  3.2 km/h 10 mph /  16.1 km/h 90 % 0 in /  0.0 mm
19:47 51.4 °F /  10.8 °C 48.6 °F /  9.2 °C 30.1 in /  1018.2 hPa WSW 5 mph /  8.0 km/h 10 mph /  16.1 km/h 90 % 0 in /  0.0 mm
19:52 51.4 °F /  10.8 °C 48.6 °F /  9.2 °C 30.1 in /  1018.2 hPa West 6 mph /  9.7 km/h 10 mph /  16.1 km/h 90 % 0 in /  0.0 mm
20:02 51.3 °F /  10.7 °C 48.7 °F /  9.3 °C 30.1 in /  1018.2 hPa West 5 mph /  8.0 km/h 9 mph /  14.5 km/h 91 % 0 in /  0.0 mm
20:07 51.3 °F /  10.7 °C 48.7 °F /  9.3 °C 30.1 in /  1018.5 hPa WNW 3 mph /  4.8 km/h 9 mph /  14.5 km/h 91 % 0 in /  0.0 mm
20:12 51.3 °F /  10.7 °C 48.7 °F /  9.3 °C 30.1 in /  1018.2 hPa WSW 3 mph /  4.8 km/h 9 mph /  14.5 km/h 91 % 0 in /  0.0 mm
20:17 51.3 °F /  10.7 °C 48.7 °F /  9.3 °C 30.1 in /  1018.2 hPa SSW 1 mph /  1.6 km/h 6 mph /  9.7 km/h 91 % 0 in /  0.0 mm
20:22 51.3 °F /  10.7 °C 48.7 °F /  9.3 °C 30.1 in /  1018.5 hPa SW 3 mph /  4.8 km/h 6 mph /  9.7 km/h 91 % 0 in /  0.0 mm
20:27 51.3 °F /  10.7 °C 48.7 °F /  9.3 °C 30.1 in /  1018.2 hPa WSW 4 mph /  6.4 km/h 5 mph /  8.0 km/h 91 % 0 in /  0.0 mm
20:32 51.1 °F /  10.6 °C 48.6 °F /  9.2 °C 30.1 in /  1018.5 hPa WSW 2 mph /  3.2 km/h 5 mph /  8.0 km/h 91 % 0 in /  0.0 mm
20:42 51.1 °F /  10.6 °C 48.9 °F /  9.4 °C 30.1 in /  1018.5 hPa WSW 2 mph /  3.2 km/h 5 mph /  8.0 km/h 92 % 0 in /  0.0 mm
20:47 51.1 °F /  10.6 °C 48.9 °F /  9.4 °C 30.1 in /  1018.2 hPa SW 2 mph /  3.2 km/h 5 mph /  8.0 km/h 92 % 0 in /  0.0 mm
20:52 51.1 °F /  10.6 °C 48.9 °F /  9.4 °C 30.1 in /  1018.2 hPa Calm   5 mph /  8.0 km/h 92 % 0 in /  0.0 mm
20:57 51.1 °F /  10.6 °C 48.6 °F /  9.2 °C 30.1 in /  1018.2 hPa WSW 2 mph /  3.2 km/h 5 mph /  8.0 km/h 91 % 0 in /  0.0 mm
21:02 51.1 °F /  10.6 °C 48.6 °F /  9.2 °C 30.1 in /  1018.2 hPa WSW 3 mph /  4.8 km/h 5 mph /  8.0 km/h 91 % 0 in /  0.0 mm
21:07 51.1 °F /  10.6 °C 48.6 °F /  9.2 °C 30.1 in /  1018.2 hPa SW 1 mph /  1.6 km/h 5 mph /  8.0 km/h 91 % 0 in /  0.0 mm
21:17 51.1 °F /  10.6 °C 48.6 °F /  9.2 °C 30.1 in /  1018.2 hPa WSW 2 mph /  3.2 km/h 4 mph /  6.4 km/h 91 % 0 in /  0.0 mm
21:27 51.1 °F /  10.6 °C 48 °F /  8.9 °C 30.1 in /  1018.2 hPa WSW 2 mph /  3.2 km/h 4 mph /  6.4 km/h 89 % 0 in /  0.0 mm
21:37 51.3 °F /  10.7 °C 47.8 °F /  8.8 °C 30.1 in /  1018.2 hPa West 2 mph /  3.2 km/h 6 mph /  9.7 km/h 88 % 0 in /  0.0 mm
21:47 51.4 °F /  10.8 °C 47.7 °F /  8.7 °C 30.1 in /  1018.2 hPa West 1 mph /  1.6 km/h 6 mph /  9.7 km/h 87 % 0 in /  0.0 mm
21:52 51.4 °F /  10.8 °C 47.7 °F /  8.7 °C 30.1 in /  1018.2 hPa SW 2 mph /  3.2 km/h 6 mph /  9.7 km/h 87 % 0 in /  0.0 mm
21:57 51.4 °F /  10.8 °C 47.7 °F /  8.7 °C 30.1 in /  1018.2 hPa WSW 2 mph /  3.2 km/h 5 mph /  8.0 km/h 87 % 0 in /  0.0 mm
22:02 51.4 °F /  10.8 °C 47.7 °F /  8.7 °C 30.1 in /  1018.2 hPa West 2 mph /  3.2 km/h 5 mph /  8.0 km/h 87 % 0 in /  0.0 mm
22:07 51.4 °F /  10.8 °C 47.7 °F /  8.7 °C 30.1 in /  1018.2 hPa SW 2 mph /  3.2 km/h 4 mph /  6.4 km/h 87 % 0 in /  0.0 mm
22:12 51.4 °F /  10.8 °C 47.7 °F /  8.7 °C 30.1 in /  1018.2 hPa SW 1 mph /  1.6 km/h 4 mph /  6.4 km/h 87 % 0 in /  0.0 mm
22:17 51.3 °F /  10.7 °C 47.8 °F /  8.8 °C 30.1 in /  1018.2 hPa WSW 4 mph /  6.4 km/h 4 mph /  6.4 km/h 88 % 0 in /  0.0 mm
22:22 51.3 °F /  10.7 °C 47.8 °F /  8.8 °C 30.1 in /  1018.2 hPa WSW 3 mph /  4.8 km/h 4 mph /  6.4 km/h 88 % 0 in /  0.0 mm
22:27 51.3 °F /  10.7 °C 48.2 °F /  9.0 °C 30.1 in /  1018.2 hPa WSW 2 mph /  3.2 km/h 6 mph /  9.7 km/h 89 % 0 in /  0.0 mm
22:32 51.1 °F /  10.6 °C 48.2 °F /  9.0 °C 30.1 in /  1018.2 hPa SW 3 mph /  4.8 km/h 6 mph /  9.7 km/h 90 % 0 in /  0.0 mm
22:37 50.7 °F /  10.4 °C 48.2 °F /  9.0 °C 30.1 in /  1018.2 hPa SW 2 mph /  3.2 km/h 6 mph /  9.7 km/h 91 % 0 in /  0.0 mm
22:42 50.7 °F /  10.4 °C 48.2 °F /  9.0 °C 30.1 in /  1018.2 hPa WSW 2 mph /  3.2 km/h 6 mph /  9.7 km/h 91 % 0 in /  0.0 mm
22:47 50.9 °F /  10.5 °C 48.4 °F /  9.1 °C 30.1 in /  1018.2 hPa WSW 2 mph /  3.2 km/h 5 mph /  8.0 km/h 91 % 0 in /  0.0 mm
22:52 50.9 °F /  10.5 °C 48 °F /  8.9 °C 30.1 in /  1018.2 hPa WSW 2 mph /  3.2 km/h 5 mph /  8.0 km/h 90 % 0 in /  0.0 mm
22:57 50.7 °F /  10.4 °C 47.8 °F /  8.8 °C 30.1 in /  1018.2 hPa West 3 mph /  4.8 km/h 6 mph /  9.7 km/h 90 % 0 in /  0.0 mm
23:02 50.7 °F /  10.4 °C 47.8 °F /  8.8 °C 30.1 in /  1017.8 hPa SW 5 mph /  8.0 km/h 6 mph /  9.7 km/h 90 % 0 in /  0.0 mm
23:07 50.7 °F /  10.4 °C 47.8 °F /  8.8 °C 30.1 in /  1017.8 hPa WSW 5 mph /  8.0 km/h 8 mph /  12.9 km/h 90 % 0 in /  0.0 mm
23:12 50.9 °F /  10.5 °C 47.8 °F /  8.8 °C 30.1 in /  1017.8 hPa WSW 6 mph /  9.7 km/h 8 mph /  12.9 km/h 89 % 0 in /  0.0 mm
23:17 50.9 °F /  10.5 °C 47.8 °F /  8.8 °C 30.1 in /  1017.8 hPa WSW 3 mph /  4.8 km/h 10 mph /  16.1 km/h 89 % 0 in /  0.0 mm
23:22 50.9 °F /  10.5 °C 47.5 °F /  8.6 °C 30.1 in /  1017.8 hPa WSW 4 mph /  6.4 km/h 10 mph /  16.1 km/h 88 % 0 in /  0.0 mm
23:27 51.1 °F /  10.6 °C 47.3 °F /  8.5 °C 30.1 in /  1017.8 hPa West 1 mph /  1.6 km/h 9 mph /  14.5 km/h 87 % 0 in /  0.0 mm
23:32 51.1 °F /  10.6 °C 47.1 °F /  8.4 °C 30.1 in /  1017.8 hPa WNW 3 mph /  4.8 km/h 9 mph /  14.5 km/h 86 % 0 in /  0.0 mm
23:37 51.3 °F /  10.7 °C 46.9 °F /  8.3 °C 30.1 in /  1017.8 hPa SW 2 mph /  3.2 km/h 7 mph /  11.3 km/h 85 % 0 in /  0.0 mm
23:42 51.3 °F /  10.7 °C 46.9 °F /  8.3 °C 30.1 in /  1017.8 hPa WSW 3 mph /  4.8 km/h 7 mph /  11.3 km/h 85 % 0 in /  0.0 mm
23:47 51.3 °F /  10.7 °C 46.9 °F /  8.3 °C 30.1 in /  1017.8 hPa WSW 4 mph /  6.4 km/h 8 mph /  12.9 km/h 85 % 0 in /  0.0 mm
23:52 51.1 °F /  10.6 °C 46.8 °F /  8.2 °C 30.1 in /  1017.8 hPa SW 1 mph /  1.6 km/h 8 mph /  12.9 km/h 85 % 0 in /  0.0 mm
23:57 51.1 °F /  10.6 °C 46.4 °F /  8.0 °C 30.1 in /  1017.8 hPa WNW 2 mph /  3.2 km/h 7 mph /  11.3 km/h 84 % 0 in /  0.0 mm
Meteo18
Compliments of Weather Underground - 4 mb

Script developed by  Jim McMurry - jmcmurry@mwt.net Adapted for the template by  Wim van der Kuil - Leuven-Template.eu

You find our weather info also at:

European Weather Network

Weather Underground

Equipment we use:

Weather-station
Davis Vue

Weather-program
Meteohub

Weather-server
Raspberry PI 2 B+

Provider
1 and 1

Davis Vue

Meteohub

Raspberry PI 2 B+

1 and 1